sensor_id;sensor_type;location;lat;lon;timestamp;P1;P2;P0
66336;PMS1003;53139;45.576;5.304;2023-06-14T00:00:32;4.75;4.00;4.00
66336;PMS1003;53139;45.576;5.304;2023-06-14T00:03:34;4.50;4.50;3.00
66336;PMS1003;53139;45.576;5.304;2023-06-14T00:06:34;3.00;3.00;2.00
66336;PMS1003;53139;45.576;5.304;2023-06-14T00:09:34;3.50;3.00;2.00
66336;PMS1003;53139;45.576;5.304;2023-06-14T00:12:35;2.00;2.00;2.00
66336;PMS1003;53139;45.576;5.304;2023-06-14T00:15:36;2.75;2.75;2.00
66336;PMS1003;53139;45.576;5.304;2023-06-14T00:18:36;2.00;1.00;1.00
66336;PMS1003;53139;45.576;5.304;2023-06-14T00:21:38;3.00;3.00;3.00
66336;PMS1003;53139;45.576;5.304;2023-06-14T00:24:38;3.00;3.00;2.50
66336;PMS1003;53139;45.576;5.304;2023-06-14T00:27:38;3.00;2.25;2.00
66336;PMS1003;53139;45.576;5.304;2023-06-14T00:30:39;3.00;3.00;3.00
66336;PMS1003;53139;45.576;5.304;2023-06-14T00:33:39;3.00;2.75;2.75
66336;PMS1003;53139;45.576;5.304;2023-06-14T00:36:40;3.00;3.00;2.50
66336;PMS1003;53139;45.576;5.304;2023-06-14T00:39:40;3.00;3.00;2.25
66336;PMS1003;53139;45.576;5.304;2023-06-14T00:42:40;2.00;2.00;2.00
66336;PMS1003;53139;45.576;5.304;2023-06-14T00:45:41;3.00;3.00;2.00
66336;PMS1003;53139;45.576;5.304;2023-06-14T00:48:41;3.25;3.00;2.00
66336;PMS1003;53139;45.576;5.304;2023-06-14T00:51:42;1.25;1.25;1.00
66336;PMS1003;53139;45.576;5.304;2023-06-14T00:54:43;2.50;2.50;1.50
66336;PMS1003;53139;45.576;5.304;2023-06-14T00:57:44;2.00;2.00;2.00
66336;PMS1003;53139;45.576;5.304;2023-06-14T01:00:45;3.25;3.25;2.25
66336;PMS1003;53139;45.576;5.304;2023-06-14T01:03:45;2.00;2.00;2.00
66336;PMS1003;53139;45.576;5.304;2023-06-14T01:13:24;3.00;3.00;2.75
66336;PMS1003;53139;45.576;5.304;2023-06-14T01:16:29;2.75;2.50;1.50
66336;PMS1003;53139;45.576;5.304;2023-06-14T01:19:32;2.75;2.75;2.00
66336;PMS1003;53139;45.576;5.304;2023-06-14T01:22:34;3.25;3.25;2.50
66336;PMS1003;53139;45.576;5.304;2023-06-14T01:25:35;7.00;4.50;2.50
66336;PMS1003;53139;45.576;5.304;2023-06-14T01:28:37;2.25;2.00;1.75
66336;PMS1003;53139;45.576;5.304;2023-06-14T01:31:37;2.50;1.50;1.25
66336;PMS1003;53139;45.576;5.304;2023-06-14T01:34:41;4.25;4.00;2.50
66336;PMS1003;53139;45.576;5.304;2023-06-14T01:37:42;3.25;2.75;2.25
66336;PMS1003;53139;45.576;5.304;2023-06-14T01:40:43;3.00;2.50;2.00
66336;PMS1003;53139;45.576;5.304;2023-06-14T01:43:45;5.50;4.00;2.25
66336;PMS1003;53139;45.576;5.304;2023-06-14T01:46:47;3.50;3.50;2.25
66336;PMS1003;53139;45.576;5.304;2023-06-14T01:49:48;4.25;2.25;2.00
66336;PMS1003;53139;45.576;5.304;2023-06-14T01:52:49;3.25;3.25;1.50
66336;PMS1003;53139;45.576;5.304;2023-06-14T01:55:49;3.00;3.00;2.50
66336;PMS1003;53139;45.576;5.304;2023-06-14T01:58:50;2.50;1.50;1.00
66336;PMS1003;53139;45.576;5.304;2023-06-14T02:01:51;4.25;2.25;2.25
66336;PMS1003;53139;45.576;5.304;2023-06-14T02:04:52;2.25;2.25;2.00
66336;PMS1003;53139;45.576;5.304;2023-06-14T02:07:52;3.50;2.75;1.50
66336;PMS1003;53139;45.576;5.304;2023-06-14T02:10:55;6.00;4.00;2.25
66336;PMS1003;53139;45.576;5.304;2023-06-14T02:13:56;3.00;3.00;3.00
66336;PMS1003;53139;45.576;5.304;2023-06-14T02:16:56;1.50;1.50;1.50
66336;PMS1003;53139;45.576;5.304;2023-06-14T02:19:57;3.50;3.25;1.50
66336;PMS1003;53139;45.576;5.304;2023-06-14T02:22:57;2.50;2.50;1.75
66336;PMS1003;53139;45.576;5.304;2023-06-14T02:25:57;2.50;2.50;2.00
66336;PMS1003;53139;45.576;5.304;2023-06-14T02:28:58;2.25;2.25;1.75
66336;PMS1003;53139;45.576;5.304;2023-06-14T02:31:58;2.25;2.25;1.75
66336;PMS1003;53139;45.576;5.304;2023-06-14T02:34:58;2.25;2.25;2.25
66336;PMS1003;53139;45.576;5.304;2023-06-14T02:37:59;2.00;2.00;2.00
66336;PMS1003;53139;45.576;5.304;2023-06-14T02:41:00;3.00;3.00;3.00
66336;PMS1003;53139;45.576;5.304;2023-06-14T02:44:01;3.00;3.00;2.00
66336;PMS1003;53139;45.576;5.304;2023-06-14T02:47:02;3.00;3.00;2.00
66336;PMS1003;53139;45.576;5.304;2023-06-14T02:50:03;3.00;3.00;2.50
66336;PMS1003;53139;45.576;5.304;2023-06-14T02:53:04;2.00;2.00;2.00
66336;PMS1003;53139;45.576;5.304;2023-06-14T02:56:04;3.00;3.00;2.00
66336;PMS1003;53139;45.576;5.304;2023-06-14T02:59:05;2.00;2.00;1.25
66336;PMS1003;53139;45.576;5.304;2023-06-14T03:02:05;4.00;1.50;1.25
66336;PMS1003;53139;45.576;5.304;2023-06-14T03:05:06;4.00;2.25;1.50
66336;PMS1003;53139;45.576;5.304;2023-06-14T03:08:07;2.00;1.50;1.00
66336;PMS1003;53139;45.576;5.304;2023-06-14T03:11:08;2.00;2.00;1.75
66336;PMS1003;53139;45.576;5.304;2023-06-14T03:14:08;3.25;3.25;2.00
66336;PMS1003;53139;45.576;5.304;2023-06-14T03:17:09;4.00;4.00;2.75
66336;PMS1003;53139;45.576;5.304;2023-06-14T03:20:10;3.50;3.00;2.00
66336;PMS1003;53139;45.576;5.304;2023-06-14T03:23:11;2.50;1.75;1.25
66336;PMS1003;53139;45.576;5.304;2023-06-14T03:26:12;4.00;2.25;1.75
66336;PMS1003;53139;45.576;5.304;2023-06-14T03:29:14;3.50;2.50;2.00
66336;PMS1003;53139;45.576;5.304;2023-06-14T03:32:14;3.00;3.00;3.00
66336;PMS1003;53139;45.576;5.304;2023-06-14T03:35:14;4.75;3.00;2.00
66336;PMS1003;53139;45.576;5.304;2023-06-14T03:38:18;3.25;3.25;2.50
66336;PMS1003;53139;45.576;5.304;2023-06-14T03:41:18;2.50;1.25;0.75
66336;PMS1003;53139;45.576;5.304;2023-06-14T03:44:18;4.75;3.00;2.00
66336;PMS1003;53139;45.576;5.304;2023-06-14T03:47:19;4.25;3.00;2.00
66336;PMS1003;53139;45.576;5.304;2023-06-14T03:50:19;4.00;2.00;2.00
66336;PMS1003;53139;45.576;5.304;2023-06-14T03:53:20;5.00;2.75;1.75
66336;PMS1003;53139;45.576;5.304;2023-06-14T03:56:23;3.75;3.00;3.00
66336;PMS1003;53139;45.576;5.304;2023-06-14T03:59:23;6.75;5.00;4.00
66336;PMS1003;53139;45.576;5.304;2023-06-14T04:02:24;5.75;3.75;2.75
66336;PMS1003;53139;45.576;5.304;2023-06-14T04:05:25;2.00;2.00;2.00
66336;PMS1003;53139;45.576;5.304;2023-06-14T04:08:26;3.50;3.50;3.25
66336;PMS1003;53139;45.576;5.304;2023-06-14T04:11:26;3.00;2.50;2.00
66336;PMS1003;53139;45.576;5.304;2023-06-14T04:14:27;2.50;2.50;1.75
66336;PMS1003;53139;45.576;5.304;2023-06-14T04:17:27;4.50;4.00;3.25
66336;PMS1003;53139;45.576;5.304;2023-06-14T04:20:28;3.00;3.00;2.00
66336;PMS1003;53139;45.576;5.304;2023-06-14T04:23:28;0.00;0.00;0.00
66336;PMS1003;53139;45.576;5.304;2023-06-14T04:26:30;4.50;2.00;2.00
66336;PMS1003;53139;45.576;5.304;2023-06-14T04:29:33;2.50;1.75;1.50
66336;PMS1003;53139;45.576;5.304;2023-06-14T04:32:34;3.25;3.25;2.00
66336;PMS1003;53139;45.576;5.304;2023-06-14T04:35:38;4.50;4.50;3.00
66336;PMS1003;53139;45.576;5.304;2023-06-14T04:38:40;3.50;3.50;2.50
66336;PMS1003;53139;45.576;5.304;2023-06-14T04:41:41;3.75;3.75;3.00
66336;PMS1003;53139;45.576;5.304;2023-06-14T04:44:42;7.25;5.75;4.00
66336;PMS1003;53139;45.576;5.304;2023-06-14T04:47:43;4.00;4.00;3.00
66336;PMS1003;53139;45.576;5.304;2023-06-14T04:50:43;5.50;4.75;3.00
66336;PMS1003;53139;45.576;5.304;2023-06-14T04:53:45;3.00;3.00;2.00
66336;PMS1003;53139;45.576;5.304;2023-06-14T04:56:45;3.50;3.50;3.00
66336;PMS1003;53139;45.576;5.304;2023-06-14T04:59:46;7.75;4.75;4.25
66336;PMS1003;53139;45.576;5.304;2023-06-14T05:02:47;4.00;3.75;2.75
66336;PMS1003;53139;45.576;5.304;2023-06-14T05:05:49;6.50;4.25;4.00
66336;PMS1003;53139;45.576;5.304;2023-06-14T05:08:50;3.00;3.00;2.75
66336;PMS1003;53139;45.576;5.304;2023-06-14T05:11:51;2.00;2.00;1.75
66336;PMS1003;53139;45.576;5.304;2023-06-14T05:14:51;2.25;2.25;2.00
66336;PMS1003;53139;45.576;5.304;2023-06-14T05:17:51;2.75;2.75;2.50
66336;PMS1003;53139;45.576;5.304;2023-06-14T05:20:55;5.75;2.25;2.00
66336;PMS1003;53139;45.576;5.304;2023-06-14T05:23:55;4.75;2.75;2.00
66336;PMS1003;53139;45.576;5.304;2023-06-14T05:26:56;3.00;3.00;2.00
66336;PMS1003;53139;45.576;5.304;2023-06-14T05:29:56;2.75;2.75;1.75
66336;PMS1003;53139;45.576;5.304;2023-06-14T05:32:58;7.25;7.25;5.75
66336;PMS1003;53139;45.576;5.304;2023-06-14T05:35:59;6.00;5.75;3.50
66336;PMS1003;53139;45.576;5.304;2023-06-14T05:38:59;8.00;6.50;4.75
66336;PMS1003;53139;45.576;5.304;2023-06-14T05:42:00;5.00;5.00;4.00
66336;PMS1003;53139;45.576;5.304;2023-06-14T05:45:01;4.50;4.25;3.00
66336;PMS1003;53139;45.576;5.304;2023-06-14T05:48:01;3.00;3.00;2.25
66336;PMS1003;53139;45.576;5.304;2023-06-14T05:51:02;3.75;2.75;2.00
66336;PMS1003;53139;45.576;5.304;2023-06-14T05:54:02;4.75;4.00;4.00
66336;PMS1003;53139;45.576;5.304;2023-06-14T05:57:03;5.50;5.00;4.00
66336;PMS1003;53139;45.576;5.304;2023-06-14T06:00:06;3.00;3.00;3.00
66336;PMS1003;53139;45.576;5.304;2023-06-14T06:03:17;2.00;2.00;2.00
66336;PMS1003;53139;45.576;5.304;2023-06-14T06:06:17;3.50;3.50;2.50
66336;PMS1003;53139;45.576;5.304;2023-06-14T06:09:18;2.00;2.00;2.00
66336;PMS1003;53139;45.576;5.304;2023-06-14T06:12:19;2.00;2.00;2.00
66336;PMS1003;53139;45.576;5.304;2023-06-14T06:15:19;8.25;3.00;3.00
66336;PMS1003;53139;45.576;5.304;2023-06-14T06:18:20;3.25;3.00;2.00
66336;PMS1003;53139;45.576;5.304;2023-06-14T06:21:20;4.25;4.00;3.00
66336;PMS1003;53139;45.576;5.304;2023-06-14T06:24:21;3.50;2.50;2.00
66336;PMS1003;53139;45.576;5.304;2023-06-14T06:27:21;3.00;3.00;2.00
66336;PMS1003;53139;45.576;5.304;2023-06-14T06:30:22;4.00;3.00;2.00
66336;PMS1003;53139;45.576;5.304;2023-06-14T06:33:22;3.00;3.00;2.75
66336;PMS1003;53139;45.576;5.304;2023-06-14T06:36:23;2.25;2.25;2.00
66336;PMS1003;53139;45.576;5.304;2023-06-14T06:39:23;3.00;3.00;2.50
66336;PMS1003;53139;45.576;5.304;2023-06-14T06:42:24;3.00;3.00;3.00
66336;PMS1003;53139;45.576;5.304;2023-06-14T06:45:24;3.50;3.00;3.00
66336;PMS1003;53139;45.576;5.304;2023-06-14T06:48:25;3.50;3.50;3.25
66336;PMS1003;53139;45.576;5.304;2023-06-14T06:51:32;2.00;2.00;2.00
66336;PMS1003;53139;45.576;5.304;2023-06-14T06:54:32;2.75;2.75;2.25
66336;PMS1003;53139;45.576;5.304;2023-06-14T06:57:33;5.00;2.25;2.00
66336;PMS1003;53139;45.576;5.304;2023-06-14T07:00:34;3.00;3.00;2.50
66336;PMS1003;53139;45.576;5.304;2023-06-14T07:03:34;2.00;2.00;2.00
66336;PMS1003;53139;45.576;5.304;2023-06-14T07:06:35;2.00;2.00;2.00
66336;PMS1003;53139;45.576;5.304;2023-06-14T07:09:36;2.00;2.00;2.00
66336;PMS1003;53139;45.576;5.304;2023-06-14T07:12:36;2.25;2.25;2.00
66336;PMS1003;53139;45.576;5.304;2023-06-14T07:15:39;2.75;2.75;2.00
66336;PMS1003;53139;45.576;5.304;2023-06-14T07:18:39;4.75;3.00;3.00
66336;PMS1003;53139;45.576;5.304;2023-06-14T07:21:40;3.00;3.00;2.00
66336;PMS1003;53139;45.576;5.304;2023-06-14T07:24:40;3.00;3.00;2.00
66336;PMS1003;53139;45.576;5.304;2023-06-14T07:27:42;1.25;1.25;1.00
66336;PMS1003;53139;45.576;5.304;2023-06-14T07:30:43;4.75;2.00;2.00
66336;PMS1003;53139;45.576;5.304;2023-06-14T07:33:43;1.25;1.25;1.25
66336;PMS1003;53139;45.576;5.304;2023-06-14T07:36:44;2.75;2.75;2.25
66336;PMS1003;53139;45.576;5.304;2023-06-14T07:39:45;2.00;2.00;2.00
66336;PMS1003;53139;45.576;5.304;2023-06-14T07:42:45;2.25;2.25;2.00
66336;PMS1003;53139;45.576;5.304;2023-06-14T07:45:45;2.00;2.00;2.00
66336;PMS1003;53139;45.576;5.304;2023-06-14T07:48:46;2.00;2.00;2.00
66336;PMS1003;53139;45.576;5.304;2023-06-14T07:51:46;6.00;4.00;3.00
66336;PMS1003;53139;45.576;5.304;2023-06-14T07:54:48;4.75;4.25;3.75
66336;PMS1003;53139;45.576;5.304;2023-06-14T07:57:48;4.00;4.00;3.75
66336;PMS1003;53139;45.576;5.304;2023-06-14T08:00:49;4.00;4.00;3.00
66336;PMS1003;53139;45.576;5.304;2023-06-14T08:03:50;5.00;4.00;3.50
66336;PMS1003;53139;45.576;5.304;2023-06-14T08:06:50;4.00;3.00;3.00
66336;PMS1003;53139;45.576;5.304;2023-06-14T08:09:50;4.25;4.25;3.25
66336;PMS1003;53139;45.576;5.304;2023-06-14T08:12:51;9.25;3.25;3.00
66336;PMS1003;53139;45.576;5.304;2023-06-14T08:15:51;3.00;2.75;2.50
66336;PMS1003;53139;45.576;5.304;2023-06-14T08:18:52;6.00;4.25;3.25
66336;PMS1003;53139;45.576;5.304;2023-06-14T08:21:52;4.00;4.00;3.50
66336;PMS1003;53139;45.576;5.304;2023-06-14T08:24:54;3.75;3.75;3.75
66336;PMS1003;53139;45.576;5.304;2023-06-14T08:27:58;3.25;2.75;2.50
66336;PMS1003;53139;45.576;5.304;2023-06-14T08:31:05;4.00;4.00;4.00
66336;PMS1003;53139;45.576;5.304;2023-06-14T08:34:05;5.00;5.00;5.00
66336;PMS1003;53139;45.576;5.304;2023-06-14T08:37:06;6.50;5.00;4.50
66336;PMS1003;53139;45.576;5.304;2023-06-14T08:40:17;8.50;6.00;5.00
66336;PMS1003;53139;45.576;5.304;2023-06-14T08:43:20;5.75;4.75;4.00
66336;PMS1003;53139;45.576;5.304;2023-06-14T08:46:20;5.25;4.75;4.00
66336;PMS1003;53139;45.576;5.304;2023-06-14T08:49:22;4.75;4.75;4.00
66336;PMS1003;53139;45.576;5.304;2023-06-14T08:52:24;5.00;5.00;4.75
66336;PMS1003;53139;45.576;5.304;2023-06-14T08:55:30;10.25;7.00;5.75
66336;PMS1003;53139;45.576;5.304;2023-06-14T08:58:33;7.50;6.00;5.00
66336;PMS1003;53139;45.576;5.304;2023-06-14T09:01:34;5.00;5.00;4.00
66336;PMS1003;53139;45.576;5.304;2023-06-14T09:04:34;8.50;7.00;6.00
66336;PMS1003;53139;45.576;5.304;2023-06-14T09:07:37;7.25;7.00;4.75
66336;PMS1003;53139;45.576;5.304;2023-06-14T09:10:39;7.00;7.00;6.00
66336;PMS1003;53139;45.576;5.304;2023-06-14T09:13:41;8.25;6.75;5.00
66336;PMS1003;53139;45.576;5.304;2023-06-14T09:16:42;7.25;7.25;5.50
66336;PMS1003;53139;45.576;5.304;2023-06-14T09:19:42;7.00;6.50;5.25
66336;PMS1003;53139;45.576;5.304;2023-06-14T09:22:42;7.50;7.50;5.75
66336;PMS1003;53139;45.576;5.304;2023-06-14T09:25:43;10.50;8.00;7.00
66336;PMS1003;53139;45.576;5.304;2023-06-14T09:28:44;9.00;8.00;6.00
66336;PMS1003;53139;45.576;5.304;2023-06-14T09:31:46;10.75;8.00;5.50
66336;PMS1003;53139;45.576;5.304;2023-06-14T09:34:47;7.00;6.25;5.00
66336;PMS1003;53139;45.576;5.304;2023-06-14T09:37:47;6.50;6.50;5.25
66336;PMS1003;53139;45.576;5.304;2023-06-14T09:40:49;7.50;7.00;6.00
66336;PMS1003;53139;45.576;5.304;2023-06-14T09:43:49;9.00;8.00;6.25
66336;PMS1003;53139;45.576;5.304;2023-06-14T09:46:50;10.75;8.00;6.25
66336;PMS1003;53139;45.576;5.304;2023-06-14T09:49:51;10.50;8.00;6.25
66336;PMS1003;53139;45.576;5.304;2023-06-14T09:52:55;6.50;6.50;5.50
66336;PMS1003;53139;45.576;5.304;2023-06-14T09:56:05;8.75;8.25;5.75
66336;PMS1003;53139;45.576;5.304;2023-06-14T09:59:06;9.00;7.25;6.00
66336;PMS1003;53139;45.576;5.304;2023-06-14T10:02:11;12.50;7.25;5.50
66336;PMS1003;53139;45.576;5.304;2023-06-14T10:05:22;6.50;6.00;5.00
66336;PMS1003;53139;45.576;5.304;2023-06-14T10:08:25;7.00;6.00;5.00
66336;PMS1003;53139;45.576;5.304;2023-06-14T10:11:29;7.00;5.00;4.25
66336;PMS1003;53139;45.576;5.304;2023-06-14T10:14:29;7.00;7.00;5.75
66336;PMS1003;53139;45.576;5.304;2023-06-14T10:17:37;7.75;7.00;5.25
66336;PMS1003;53139;45.576;5.304;2023-06-14T10:24:09;6.75;6.75;4.75
66336;PMS1003;53139;45.576;5.304;2023-06-14T10:27:13;9.00;8.00;7.00
66336;PMS1003;53139;45.576;5.304;2023-06-14T10:30:14;8.50;7.00;5.00
66336;PMS1003;53139;45.576;5.304;2023-06-14T10:33:15;8.00;6.00;5.00
66336;PMS1003;53139;45.576;5.304;2023-06-14T10:39:21;10.25;8.50;6.50
66336;PMS1003;53139;45.576;5.304;2023-06-14T10:42:23;8.00;5.00;4.00
66336;PMS1003;53139;45.576;5.304;2023-06-14T10:45:28;7.50;7.00;5.25
66336;PMS1003;53139;45.576;5.304;2023-06-14T10:48:32;6.50;6.00;4.75
66336;PMS1003;53139;45.576;5.304;2023-06-14T10:51:39;4.75;4.75;4.25
66336;PMS1003;53139;45.576;5.304;2023-06-14T10:54:59;8.75;8.75;6.75
66336;PMS1003;53139;45.576;5.304;2023-06-14T10:58:06;8.25;7.25;6.00
66336;PMS1003;53139;45.576;5.304;2023-06-14T11:01:06;10.50;9.00;7.00
66336;PMS1003;53139;45.576;5.304;2023-06-14T11:04:08;10.00;7.75;6.00
66336;PMS1003;53139;45.576;5.304;2023-06-14T11:10:53;9.50;8.75;6.25
66336;PMS1003;53139;45.576;5.304;2023-06-14T11:13:56;7.75;7.75;6.50
66336;PMS1003;53139;45.576;5.304;2023-06-14T11:16:56;9.25;8.00;6.25
66336;PMS1003;53139;45.576;5.304;2023-06-14T11:20:09;11.25;10.25;7.25
66336;PMS1003;53139;45.576;5.304;2023-06-14T11:23:15;8.25;8.25;7.00
66336;PMS1003;53139;45.576;5.304;2023-06-14T11:26:16;7.75;6.50;5.25
66336;PMS1003;53139;45.576;5.304;2023-06-14T11:29:23;8.00;8.00;6.75
66336;PMS1003;53139;45.576;5.304;2023-06-14T11:32:24;4.25;4.25;3.00
66336;PMS1003;53139;45.576;5.304;2023-06-14T11:35:25;7.50;7.50;6.00
66336;PMS1003;53139;45.576;5.304;2023-06-14T11:38:26;6.75;6.75;5.75
66336;PMS1003;53139;45.576;5.304;2023-06-14T11:41:31;7.25;7.25;6.50
66336;PMS1003;53139;45.576;5.304;2023-06-14T11:44:45;9.25;7.75;6.00
66336;PMS1003;53139;45.576;5.304;2023-06-14T11:47:46;11.25;10.00;8.00
66336;PMS1003;53139;45.576;5.304;2023-06-14T11:50:49;9.50;7.50;6.50
66336;PMS1003;53139;45.576;5.304;2023-06-14T11:53:50;8.00;8.00;6.75
66336;PMS1003;53139;45.576;5.304;2023-06-14T11:56:51;8.00;7.50;6.25
66336;PMS1003;53139;45.576;5.304;2023-06-14T11:59:51;7.25;7.25;6.25
66336;PMS1003;53139;45.576;5.304;2023-06-14T12:02:55;6.00;6.00;5.25
66336;PMS1003;53139;45.576;5.304;2023-06-14T12:06:06;7.75;7.75;7.00
66336;PMS1003;53139;45.576;5.304;2023-06-14T12:09:07;6.50;6.50;5.00
66336;PMS1003;53139;45.576;5.304;2023-06-14T12:12:12;8.75;8.00;6.75
66336;PMS1003;53139;45.576;5.304;2023-06-14T12:15:13;8.25;6.50;5.00
66336;PMS1003;53139;45.576;5.304;2023-06-14T12:18:13;8.00;7.25;6.00
66336;PMS1003;53139;45.576;5.304;2023-06-14T12:21:13;8.50;6.75;5.00
66336;PMS1003;53139;45.576;5.304;2023-06-14T12:24:15;7.25;7.25;5.75
66336;PMS1003;53139;45.576;5.304;2023-06-14T12:27:15;10.50;9.75;8.00
66336;PMS1003;53139;45.576;5.304;2023-06-14T12:30:18;9.00;9.00;6.50
66336;PMS1003;53139;45.576;5.304;2023-06-14T12:33:19;7.75;7.75;6.50
66336;PMS1003;53139;45.576;5.304;2023-06-14T12:36:19;8.75;8.25;6.50
66336;PMS1003;53139;45.576;5.304;2023-06-14T12:39:20;9.00;9.00;6.00
66336;PMS1003;53139;45.576;5.304;2023-06-14T12:42:20;8.00;8.00;5.75
66336;PMS1003;53139;45.576;5.304;2023-06-14T12:45:21;9.25;8.50;6.00
66336;PMS1003;53139;45.576;5.304;2023-06-14T12:48:23;7.25;7.25;6.25
66336;PMS1003;53139;45.576;5.304;2023-06-14T12:51:23;11.75;9.00;7.25
66336;PMS1003;53139;45.576;5.304;2023-06-14T12:54:25;8.75;7.75;6.00
66336;PMS1003;53139;45.576;5.304;2023-06-14T12:57:25;8.00;8.00;6.00
66336;PMS1003;53139;45.576;5.304;2023-06-14T13:00:26;7.00;7.00;6.50
66336;PMS1003;53139;45.576;5.304;2023-06-14T13:03:26;4.75;4.00;4.00
66336;PMS1003;53139;45.576;5.304;2023-06-14T13:06:26;9.00;8.25;6.25
66336;PMS1003;53139;45.576;5.304;2023-06-14T13:09:29;10.50;7.50;7.00
66336;PMS1003;53139;45.576;5.304;2023-06-14T13:12:29;9.75;8.50;7.00
66336;PMS1003;53139;45.576;5.304;2023-06-14T13:15:30;8.75;8.75;6.00
66336;PMS1003;53139;45.576;5.304;2023-06-14T13:18:30;8.00;6.75;5.75
66336;PMS1003;53139;45.576;5.304;2023-06-14T13:21:30;8.00;8.00;7.00
66336;PMS1003;53139;45.576;5.304;2023-06-14T13:24:31;8.00;8.00;7.00
66336;PMS1003;53139;45.576;5.304;2023-06-14T13:27:31;7.75;7.75;7.00
66336;PMS1003;53139;45.576;5.304;2023-06-14T13:30:32;7.50;6.50;5.50
66336;PMS1003;53139;45.576;5.304;2023-06-14T13:33:33;9.00;8.25;7.00
66336;PMS1003;53139;45.576;5.304;2023-06-14T13:36:34;7.00;7.00;6.00
66336;PMS1003;53139;45.576;5.304;2023-06-14T13:39:34;7.25;7.25;6.50
66336;PMS1003;53139;45.576;5.304;2023-06-14T13:42:37;9.50;8.50;6.75
66336;PMS1003;53139;45.576;5.304;2023-06-14T13:45:37;7.25;7.25;6.00
66336;PMS1003;53139;45.576;5.304;2023-06-14T13:48:38;10.75;7.50;6.50
66336;PMS1003;53139;45.576;5.304;2023-06-14T13:51:38;8.25;8.25;6.00
66336;PMS1003;53139;45.576;5.304;2023-06-14T13:54:38;6.50;6.00;4.75
66336;PMS1003;53139;45.576;5.304;2023-06-14T13:57:39;10.00;8.67;8.00
66336;PMS1003;53139;45.576;5.304;2023-06-14T14:00:39;9.25;9.00;6.75
66336;PMS1003;53139;45.576;5.304;2023-06-14T14:03:40;10.00;9.00;7.00
66336;PMS1003;53139;45.576;5.304;2023-06-14T14:06:40;12.00;9.25;8.00
66336;PMS1003;53139;45.576;5.304;2023-06-14T14:09:41;12.25;10.00;8.50
66336;PMS1003;53139;45.576;5.304;2023-06-14T14:12:43;10.00;9.50;8.00
66336;PMS1003;53139;45.576;5.304;2023-06-14T14:15:43;9.25;9.25;7.75
66336;PMS1003;53139;45.576;5.304;2023-06-14T14:18:43;8.75;8.75;7.75
66336;PMS1003;53139;45.576;5.304;2023-06-14T14:21:45;9.25;9.25;7.75
66336;PMS1003;53139;45.576;5.304;2023-06-14T14:24:46;8.75;8.75;7.00
66336;PMS1003;53139;45.576;5.304;2023-06-14T14:27:47;8.00;8.00;6.50
66336;PMS1003;53139;45.576;5.304;2023-06-14T14:30:47;9.50;7.75;7.00
66336;PMS1003;53139;45.576;5.304;2023-06-14T14:33:48;11.00;8.50;7.00
66336;PMS1003;53139;45.576;5.304;2023-06-14T14:36:48;8.25;7.50;6.25
66336;PMS1003;53139;45.576;5.304;2023-06-14T14:39:49;9.50;8.75;7.75
66336;PMS1003;53139;45.576;5.304;2023-06-14T14:42:49;6.75;6.50;5.00
66336;PMS1003;53139;45.576;5.304;2023-06-14T14:45:50;7.75;5.75;5.50
66336;PMS1003;53139;45.576;5.304;2023-06-14T14:48:50;7.00;7.00;6.00
66336;PMS1003;53139;45.576;5.304;2023-06-14T14:51:50;4.50;4.50;3.00
66336;PMS1003;53139;45.576;5.304;2023-06-14T14:54:51;6.00;6.00;5.25
66336;PMS1003;53139;45.576;5.304;2023-06-14T14:57:51;6.75;6.00;4.00
66336;PMS1003;53139;45.576;5.304;2023-06-14T15:00:51;5.00;5.00;4.25
66336;PMS1003;53139;45.576;5.304;2023-06-14T15:03:52;7.25;5.00;4.00
66336;PMS1003;53139;45.576;5.304;2023-06-14T15:06:52;6.25;6.25;4.50
66336;PMS1003;53139;45.576;5.304;2023-06-14T15:09:53;8.50;7.75;6.00
66336;PMS1003;53139;45.576;5.304;2023-06-14T15:12:54;6.75;6.00;5.50
66336;PMS1003;53139;45.576;5.304;2023-06-14T15:15:54;7.00;5.00;4.00
66336;PMS1003;53139;45.576;5.304;2023-06-14T15:18:55;7.25;5.50;4.75
66336;PMS1003;53139;45.576;5.304;2023-06-14T15:21:55;6.00;5.75;4.75
66336;PMS1003;53139;45.576;5.304;2023-06-14T15:24:57;5.00;4.25;3.50
66336;PMS1003;53139;45.576;5.304;2023-06-14T15:27:57;4.25;4.25;3.25
66336;PMS1003;53139;45.576;5.304;2023-06-14T15:30:58;5.50;5.50;4.00
66336;PMS1003;53139;45.576;5.304;2023-06-14T15:33:59;7.50;6.00;5.00
66336;PMS1003;53139;45.576;5.304;2023-06-14T15:36:59;5.75;5.00;4.00
66336;PMS1003;53139;45.576;5.304;2023-06-14T15:39:59;5.25;4.75;4.00
66336;PMS1003;53139;45.576;5.304;2023-06-14T15:43:00;6.25;6.25;4.75
66336;PMS1003;53139;45.576;5.304;2023-06-14T15:46:00;6.75;5.25;4.00
66336;PMS1003;53139;45.576;5.304;2023-06-14T15:49:01;6.00;4.50;4.00
66336;PMS1003;53139;45.576;5.304;2023-06-14T15:52:02;4.50;4.50;4.00
66336;PMS1003;53139;45.576;5.304;2023-06-14T15:55:03;4.25;4.25;4.00
66336;PMS1003;53139;45.576;5.304;2023-06-14T15:58:04;4.50;4.50;3.50
66336;PMS1003;53139;45.576;5.304;2023-06-14T16:01:04;5.25;5.25;3.25
66336;PMS1003;53139;45.576;5.304;2023-06-14T16:04:05;5.00;4.50;4.00
66336;PMS1003;53139;45.576;5.304;2023-06-14T16:07:06;7.00;5.00;4.25
66336;PMS1003;53139;45.576;5.304;2023-06-14T16:10:06;5.00;5.00;3.75
66336;PMS1003;53139;45.576;5.304;2023-06-14T16:13:07;4.00;4.00;3.75
66336;PMS1003;53139;45.576;5.304;2023-06-14T16:16:08;4.00;4.00;3.25
66336;PMS1003;53139;45.576;5.304;2023-06-14T16:19:09;4.75;4.00;3.75
66336;PMS1003;53139;45.576;5.304;2023-06-14T16:22:10;4.75;3.50;3.25
66336;PMS1003;53139;45.576;5.304;2023-06-14T16:25:10;5.00;5.00;4.75
66336;PMS1003;53139;45.576;5.304;2023-06-14T16:28:10;7.25;4.00;3.00
66336;PMS1003;53139;45.576;5.304;2023-06-14T16:31:14;5.25;5.25;4.00
66336;PMS1003;53139;45.576;5.304;2023-06-14T16:34:15;5.00;4.00;3.00
66336;PMS1003;53139;45.576;5.304;2023-06-14T16:37:16;5.50;5.00;4.25
66336;PMS1003;53139;45.576;5.304;2023-06-14T16:40:16;6.50;4.25;3.75
66336;PMS1003;53139;45.576;5.304;2023-06-14T16:43:17;7.25;4.25;4.00
66336;PMS1003;53139;45.576;5.304;2023-06-14T16:46:27;6.50;5.75;4.75
66336;PMS1003;53139;45.576;5.304;2023-06-14T16:49:28;6.00;5.00;4.75
66336;PMS1003;53139;45.576;5.304;2023-06-14T16:52:29;5.00;5.00;5.00
66336;PMS1003;53139;45.576;5.304;2023-06-14T16:55:29;5.75;5.25;4.00
66336;PMS1003;53139;45.576;5.304;2023-06-14T16:58:31;6.00;6.00;4.00
66336;PMS1003;53139;45.576;5.304;2023-06-14T17:01:31;6.50;5.25;4.00
66336;PMS1003;53139;45.576;5.304;2023-06-14T17:04:34;4.50;4.25;3.50
66336;PMS1003;53139;45.576;5.304;2023-06-14T17:07:34;6.00;6.00;4.50
66336;PMS1003;53139;45.576;5.304;2023-06-14T17:10:34;7.25;5.00;4.00
66336;PMS1003;53139;45.576;5.304;2023-06-14T17:13:35;7.25;7.25;5.50
66336;PMS1003;53139;45.576;5.304;2023-06-14T17:16:35;6.00;5.25;4.50
66336;PMS1003;53139;45.576;5.304;2023-06-14T17:19:36;7.75;6.25;5.00
66336;PMS1003;53139;45.576;5.304;2023-06-14T17:22:37;16.50;14.25;10.75
66336;PMS1003;53139;45.576;5.304;2023-06-14T17:25:38;11.25;8.75;6.50
66336;PMS1003;53139;45.576;5.304;2023-06-14T17:28:38;10.00;8.00;7.00
66336;PMS1003;53139;45.576;5.304;2023-06-14T17:31:39;6.00;6.00;4.50
66336;PMS1003;53139;45.576;5.304;2023-06-14T17:34:39;5.00;5.00;4.75
66336;PMS1003;53139;45.576;5.304;2023-06-14T17:37:40;3.00;3.00;3.00
66336;PMS1003;53139;45.576;5.304;2023-06-14T17:40:40;5.25;5.25;4.50
66336;PMS1003;53139;45.576;5.304;2023-06-14T17:43:41;10.25;9.00;7.00
66336;PMS1003;53139;45.576;5.304;2023-06-14T17:46:41;7.75;6.50;5.75
66336;PMS1003;53139;45.576;5.304;2023-06-14T17:49:41;8.00;8.00;7.00
66336;PMS1003;53139;45.576;5.304;2023-06-14T17:52:42;6.75;6.75;5.00
66336;PMS1003;53139;45.576;5.304;2023-06-14T17:55:42;7.00;5.25;5.00